sensor_id;sensor_type;location;lat;lon;timestamp;P1;durP1;ratioP1;P2;durP2;ratioP2
30301;SDS011;17111;52.130;5.028;2023-12-28T00:01:47;3.20;;;2.22;;
30301;SDS011;17111;52.130;5.028;2023-12-28T00:04:15;4.47;;;2.25;;
30301;SDS011;17111;52.130;5.028;2023-12-28T00:06:42;3.90;;;2.42;;
30301;SDS011;17111;52.130;5.028;2023-12-28T00:09:08;4.45;;;2.42;;
30301;SDS011;17111;52.130;5.028;2023-12-28T00:11:37;4.60;;;2.30;;
30301;SDS011;17111;52.130;5.028;2023-12-28T00:14:05;5.68;;;2.70;;
30301;SDS011;17111;52.130;5.028;2023-12-28T00:16:31;5.90;;;3.05;;
30301;SDS011;17111;52.130;5.028;2023-12-28T00:19:03;3.30;;;2.17;;
30301;SDS011;17111;52.130;5.028;2023-12-28T00:21:31;4.43;;;2.40;;
30301;SDS011;17111;52.130;5.028;2023-12-28T00:23:58;4.22;;;2.72;;
30301;SDS011;17111;52.130;5.028;2023-12-28T00:26:24;3.75;;;2.30;;
30301;SDS011;17111;52.130;5.028;2023-12-28T00:28:51;3.95;;;2.35;;
30301;SDS011;17111;52.130;5.028;2023-12-28T00:31:17;4.35;;;2.65;;
30301;SDS011;17111;52.130;5.028;2023-12-28T00:33:44;4.05;;;2.63;;
30301;SDS011;17111;52.130;5.028;2023-12-28T00:36:11;3.13;;;2.00;;
30301;SDS011;17111;52.130;5.028;2023-12-28T00:38:38;3.25;;;2.25;;
30301;SDS011;17111;52.130;5.028;2023-12-28T00:41:04;3.70;;;2.30;;
30301;SDS011;17111;52.130;5.028;2023-12-28T00:43:31;2.92;;;2.42;;
30301;SDS011;17111;52.130;5.028;2023-12-28T00:45:57;3.55;;;2.33;;
30301;SDS011;17111;52.130;5.028;2023-12-28T00:48:24;4.45;;;2.50;;
30301;SDS011;17111;52.130;5.028;2023-12-28T00:50:51;4.57;;;2.47;;
30301;SDS011;17111;52.130;5.028;2023-12-28T00:53:18;4.97;;;2.50;;
30301;SDS011;17111;52.130;5.028;2023-12-28T00:55:46;5.13;;;2.35;;
30301;SDS011;17111;52.130;5.028;2023-12-28T00:58:12;4.28;;;2.17;;
30301;SDS011;17111;52.130;5.028;2023-12-28T01:00:39;3.17;;;2.17;;
30301;SDS011;17111;52.130;5.028;2023-12-28T01:03:06;3.75;;;2.30;;
30301;SDS011;17111;52.130;5.028;2023-12-28T01:05:32;2.85;;;1.80;;
30301;SDS011;17111;52.130;5.028;2023-12-28T01:07:59;3.75;;;1.98;;
30301;SDS011;17111;52.130;5.028;2023-12-28T01:10:26;4.72;;;2.20;;
30301;SDS011;17111;52.130;5.028;2023-12-28T01:12:52;3.45;;;2.00;;
30301;SDS011;17111;52.130;5.028;2023-12-28T01:15:19;4.28;;;2.17;;
30301;SDS011;17111;52.130;5.028;2023-12-28T01:17:46;2.88;;;1.90;;
30301;SDS011;17111;52.130;5.028;2023-12-28T01:20:13;4.07;;;2.20;;
30301;SDS011;17111;52.130;5.028;2023-12-28T01:22:40;5.05;;;2.15;;
30301;SDS011;17111;52.130;5.028;2023-12-28T01:25:07;3.15;;;1.67;;
30301;SDS011;17111;52.130;5.028;2023-12-28T01:27:33;2.90;;;1.90;;
30301;SDS011;17111;52.130;5.028;2023-12-28T01:30:00;4.10;;;1.77;;
30301;SDS011;17111;52.130;5.028;2023-12-28T01:32:27;4.90;;;2.22;;
30301;SDS011;17111;52.130;5.028;2023-12-28T01:34:53;5.32;;;2.00;;
30301;SDS011;17111;52.130;5.028;2023-12-28T01:37:21;3.33;;;1.90;;
30301;SDS011;17111;52.130;5.028;2023-12-28T01:39:47;4.25;;;2.00;;
30301;SDS011;17111;52.130;5.028;2023-12-28T01:42:14;5.07;;;2.10;;
30301;SDS011;17111;52.130;5.028;2023-12-28T01:44:41;5.43;;;2.10;;
30301;SDS011;17111;52.130;5.028;2023-12-28T01:47:08;3.00;;;1.85;;
30301;SDS011;17111;52.130;5.028;2023-12-28T01:49:34;2.85;;;2.00;;
30301;SDS011;17111;52.130;5.028;2023-12-28T01:52:03;3.67;;;2.10;;
30301;SDS011;17111;52.130;5.028;2023-12-28T01:54:31;2.85;;;1.67;;
30301;SDS011;17111;52.130;5.028;2023-12-28T01:56:58;4.97;;;1.83;;
30301;SDS011;17111;52.130;5.028;2023-12-28T01:59:27;3.85;;;1.70;;
30301;SDS011;17111;52.130;5.028;2023-12-28T02:01:54;2.80;;;1.88;;
30301;SDS011;17111;52.130;5.028;2023-12-28T02:04:21;2.30;;;1.75;;
30301;SDS011;17111;52.130;5.028;2023-12-28T02:06:57;5.43;;;2.10;;
30301;SDS011;17111;52.130;5.028;2023-12-28T02:09:25;4.35;;;1.85;;
30301;SDS011;17111;52.130;5.028;2023-12-28T02:11:52;6.60;;;2.10;;
30301;SDS011;17111;52.130;5.028;2023-12-28T02:14:21;4.05;;;2.30;;
30301;SDS011;17111;52.130;5.028;2023-12-28T02:17:09;4.10;;;1.90;;
30301;SDS011;17111;52.130;5.028;2023-12-28T02:19:51;3.45;;;2.05;;
30301;SDS011;17111;52.130;5.028;2023-12-28T02:22:20;2.90;;;1.95;;
30301;SDS011;17111;52.130;5.028;2023-12-28T02:27:28;3.30;;;1.40;;
30301;SDS011;17111;52.130;5.028;2023-12-28T02:29:55;5.05;;;1.90;;
30301;SDS011;17111;52.130;5.028;2023-12-28T02:32:22;4.70;;;1.98;;
30301;SDS011;17111;52.130;5.028;2023-12-28T02:34:56;11.02;;;2.67;;
30301;SDS011;17111;52.130;5.028;2023-12-28T02:37:28;3.95;;;1.90;;
30301;SDS011;17111;52.130;5.028;2023-12-28T02:39:56;4.53;;;1.90;;
30301;SDS011;17111;52.130;5.028;2023-12-28T02:42:23;2.47;;;1.70;;
30301;SDS011;17111;52.130;5.028;2023-12-28T02:44:49;3.33;;;1.65;;
30301;SDS011;17111;52.130;5.028;2023-12-28T02:47:16;4.65;;;2.15;;
30301;SDS011;17111;52.130;5.028;2023-12-28T02:49:43;2.83;;;1.85;;
30301;SDS011;17111;52.130;5.028;2023-12-28T02:52:09;2.85;;;1.50;;
30301;SDS011;17111;52.130;5.028;2023-12-28T02:54:36;3.22;;;1.88;;
30301;SDS011;17111;52.130;5.028;2023-12-28T02:57:03;3.40;;;1.65;;
30301;SDS011;17111;52.130;5.028;2023-12-28T02:59:30;3.10;;;1.55;;
30301;SDS011;17111;52.130;5.028;2023-12-28T03:01:56;3.65;;;1.40;;
30301;SDS011;17111;52.130;5.028;2023-12-28T03:04:23;3.60;;;1.70;;
30301;SDS011;17111;52.130;5.028;2023-12-28T03:06:49;4.00;;;1.98;;
30301;SDS011;17111;52.130;5.028;2023-12-28T03:09:16;3.22;;;1.65;;
30301;SDS011;17111;52.130;5.028;2023-12-28T03:11:43;2.65;;;1.60;;
30301;SDS011;17111;52.130;5.028;2023-12-28T03:14:09;2.60;;;1.55;;
30301;SDS011;17111;52.130;5.028;2023-12-28T03:16:36;3.90;;;1.83;;
30301;SDS011;17111;52.130;5.028;2023-12-28T03:19:02;4.50;;;1.70;;
30301;SDS011;17111;52.130;5.028;2023-12-28T03:21:29;3.88;;;1.77;;
30301;SDS011;17111;52.130;5.028;2023-12-28T03:23:56;3.03;;;1.48;;
30301;SDS011;17111;52.130;5.028;2023-12-28T03:26:23;4.45;;;1.73;;
30301;SDS011;17111;52.130;5.028;2023-12-28T03:28:50;4.10;;;1.50;;
30301;SDS011;17111;52.130;5.028;2023-12-28T03:31:16;2.72;;;1.60;;
30301;SDS011;17111;52.130;5.028;2023-12-28T03:33:43;4.13;;;1.38;;
30301;SDS011;17111;52.130;5.028;2023-12-28T03:36:17;3.35;;;1.55;;
30301;SDS011;17111;52.130;5.028;2023-12-28T03:38:46;3.83;;;1.60;;
30301;SDS011;17111;52.130;5.028;2023-12-28T03:41:19;2.97;;;1.65;;
30301;SDS011;17111;52.130;5.028;2023-12-28T03:43:46;4.97;;;1.85;;
30301;SDS011;17111;52.130;5.028;2023-12-28T03:46:13;2.70;;;1.20;;
30301;SDS011;17111;52.130;5.028;2023-12-28T03:48:40;4.10;;;1.63;;
30301;SDS011;17111;52.130;5.028;2023-12-28T03:51:07;3.33;;;1.50;;
30301;SDS011;17111;52.130;5.028;2023-12-28T03:53:34;4.00;;;1.60;;
30301;SDS011;17111;52.130;5.028;2023-12-28T03:56:01;2.85;;;1.40;;
30301;SDS011;17111;52.130;5.028;2023-12-28T03:58:27;3.88;;;1.40;;
30301;SDS011;17111;52.130;5.028;2023-12-28T04:00:54;3.47;;;1.48;;
30301;SDS011;17111;52.130;5.028;2023-12-28T04:03:21;4.25;;;1.48;;
30301;SDS011;17111;52.130;5.028;2023-12-28T04:05:47;3.38;;;1.67;;
30301;SDS011;17111;52.130;5.028;2023-12-28T04:08:14;5.47;;;1.80;;
30301;SDS011;17111;52.130;5.028;2023-12-28T04:10:40;3.85;;;1.52;;
30301;SDS011;17111;52.130;5.028;2023-12-28T04:13:07;2.05;;;1.20;;
30301;SDS011;17111;52.130;5.028;2023-12-28T04:15:34;3.95;;;1.67;;
30301;SDS011;17111;52.130;5.028;2023-12-28T04:18:00;3.92;;;1.65;;
30301;SDS011;17111;52.130;5.028;2023-12-28T04:20:28;5.18;;;1.63;;
30301;SDS011;17111;52.130;5.028;2023-12-28T04:22:54;3.60;;;1.60;;
30301;SDS011;17111;52.130;5.028;2023-12-28T04:25:21;2.75;;;1.70;;
30301;SDS011;17111;52.130;5.028;2023-12-28T04:27:47;4.22;;;1.70;;
30301;SDS011;17111;52.130;5.028;2023-12-28T04:30:15;2.92;;;1.50;;
30301;SDS011;17111;52.130;5.028;2023-12-28T04:32:42;3.78;;;1.65;;
30301;SDS011;17111;52.130;5.028;2023-12-28T04:35:09;3.35;;;1.45;;
30301;SDS011;17111;52.130;5.028;2023-12-28T04:37:35;6.45;;;2.25;;
30301;SDS011;17111;52.130;5.028;2023-12-28T04:40:03;4.60;;;1.50;;
30301;SDS011;17111;52.130;5.028;2023-12-28T04:42:30;5.05;;;2.15;;
30301;SDS011;17111;52.130;5.028;2023-12-28T04:44:56;3.58;;;1.90;;
30301;SDS011;17111;52.130;5.028;2023-12-28T04:47:23;7.68;;;2.38;;
30301;SDS011;17111;52.130;5.028;2023-12-28T04:49:50;6.22;;;1.90;;
30301;SDS011;17111;52.130;5.028;2023-12-28T04:52:16;3.28;;;1.50;;
30301;SDS011;17111;52.130;5.028;2023-12-28T04:54:43;3.90;;;1.70;;
30301;SDS011;17111;52.130;5.028;2023-12-28T04:57:10;6.00;;;1.88;;
30301;SDS011;17111;52.130;5.028;2023-12-28T04:59:40;4.30;;;1.70;;
30301;SDS011;17111;52.130;5.028;2023-12-28T05:02:07;4.00;;;1.58;;
30301;SDS011;17111;52.130;5.028;2023-12-28T05:04:36;7.03;;;2.05;;
30301;SDS011;17111;52.130;5.028;2023-12-28T05:07:05;3.60;;;1.33;;
30301;SDS011;17111;52.130;5.028;2023-12-28T05:09:31;3.97;;;1.88;;
30301;SDS011;17111;52.130;5.028;2023-12-28T05:11:58;8.20;;;1.98;;
30301;SDS011;17111;52.130;5.028;2023-12-28T05:14:25;4.88;;;1.83;;
30301;SDS011;17111;52.130;5.028;2023-12-28T05:16:51;5.45;;;1.60;;
30301;SDS011;17111;52.130;5.028;2023-12-28T05:19:18;4.40;;;1.60;;
30301;SDS011;17111;52.130;5.028;2023-12-28T05:21:45;5.55;;;1.70;;
30301;SDS011;17111;52.130;5.028;2023-12-28T05:24:12;4.07;;;1.98;;
30301;SDS011;17111;52.130;5.028;2023-12-28T05:26:39;4.03;;;1.35;;
30301;SDS011;17111;52.130;5.028;2023-12-28T05:29:06;6.07;;;1.83;;
30301;SDS011;17111;52.130;5.028;2023-12-28T05:31:33;4.82;;;1.40;;
30301;SDS011;17111;52.130;5.028;2023-12-28T05:33:59;5.03;;;1.77;;
30301;SDS011;17111;52.130;5.028;2023-12-28T05:36:26;5.43;;;1.88;;
30301;SDS011;17111;52.130;5.028;2023-12-28T05:38:53;6.47;;;1.98;;
30301;SDS011;17111;52.130;5.028;2023-12-28T05:41:19;4.38;;;1.40;;
30301;SDS011;17111;52.130;5.028;2023-12-28T05:43:47;6.03;;;1.75;;
30301;SDS011;17111;52.130;5.028;2023-12-28T05:46:13;3.40;;;1.63;;
30301;SDS011;17111;52.130;5.028;2023-12-28T05:48:40;6.45;;;1.90;;
30301;SDS011;17111;52.130;5.028;2023-12-28T05:51:07;7.35;;;1.80;;
30301;SDS011;17111;52.130;5.028;2023-12-28T05:53:33;8.35;;;2.65;;
30301;SDS011;17111;52.130;5.028;2023-12-28T05:56:00;7.65;;;2.05;;
30301;SDS011;17111;52.130;5.028;2023-12-28T05:58:29;6.93;;;2.35;;
30301;SDS011;17111;52.130;5.028;2023-12-28T06:00:56;8.40;;;2.22;;
30301;SDS011;17111;52.130;5.028;2023-12-28T06:03:22;5.00;;;1.80;;
30301;SDS011;17111;52.130;5.028;2023-12-28T06:05:54;7.40;;;2.15;;
30301;SDS011;17111;52.130;5.028;2023-12-28T06:08:22;6.13;;;2.22;;
30301;SDS011;17111;52.130;5.028;2023-12-28T06:10:52;5.15;;;2.10;;
30301;SDS011;17111;52.130;5.028;2023-12-28T06:13:19;8.13;;;1.65;;
30301;SDS011;17111;52.130;5.028;2023-12-28T06:15:46;5.95;;;1.85;;
30301;SDS011;17111;52.130;5.028;2023-12-28T06:18:12;5.50;;;1.92;;
30301;SDS011;17111;52.130;5.028;2023-12-28T06:20:39;5.70;;;1.88;;
30301;SDS011;17111;52.130;5.028;2023-12-28T06:23:06;7.30;;;2.03;;
30301;SDS011;17111;52.130;5.028;2023-12-28T06:25:34;6.60;;;2.05;;
30301;SDS011;17111;52.130;5.028;2023-12-28T06:28:00;7.50;;;2.00;;
30301;SDS011;17111;52.130;5.028;2023-12-28T06:30:27;6.10;;;2.10;;
30301;SDS011;17111;52.130;5.028;2023-12-28T06:32:54;4.80;;;1.77;;
30301;SDS011;17111;52.130;5.028;2023-12-28T06:35:21;6.78;;;1.90;;
30301;SDS011;17111;52.130;5.028;2023-12-28T06:37:48;6.95;;;2.13;;
30301;SDS011;17111;52.130;5.028;2023-12-28T06:40:14;6.13;;;2.55;;
30301;SDS011;17111;52.130;5.028;2023-12-28T06:42:41;5.88;;;1.75;;
30301;SDS011;17111;52.130;5.028;2023-12-28T06:45:09;6.60;;;2.13;;
30301;SDS011;17111;52.130;5.028;2023-12-28T06:47:36;7.60;;;2.05;;
30301;SDS011;17111;52.130;5.028;2023-12-28T06:50:03;6.43;;;2.25;;
30301;SDS011;17111;52.130;5.028;2023-12-28T06:52:31;8.35;;;1.88;;
30301;SDS011;17111;52.130;5.028;2023-12-28T06:54:57;9.00;;;1.88;;
30301;SDS011;17111;52.130;5.028;2023-12-28T06:57:24;8.43;;;2.10;;
30301;SDS011;17111;52.130;5.028;2023-12-28T06:59:51;8.38;;;2.10;;
30301;SDS011;17111;52.130;5.028;2023-12-28T07:02:17;7.57;;;2.42;;
30301;SDS011;17111;52.130;5.028;2023-12-28T07:04:44;7.93;;;2.00;;
30301;SDS011;17111;52.130;5.028;2023-12-28T07:07:11;6.70;;;1.92;;
30301;SDS011;17111;52.130;5.028;2023-12-28T07:09:37;5.80;;;1.67;;
30301;SDS011;17111;52.130;5.028;2023-12-28T07:12:04;8.63;;;2.22;;
30301;SDS011;17111;52.130;5.028;2023-12-28T07:14:31;6.10;;;1.65;;
30301;SDS011;17111;52.130;5.028;2023-12-28T07:16:58;6.57;;;2.40;;
30301;SDS011;17111;52.130;5.028;2023-12-28T07:19:24;7.72;;;2.40;;
30301;SDS011;17111;52.130;5.028;2023-12-28T07:21:51;5.70;;;2.22;;
30301;SDS011;17111;52.130;5.028;2023-12-28T07:24:17;6.85;;;2.30;;
30301;SDS011;17111;52.130;5.028;2023-12-28T07:26:44;6.03;;;1.85;;
30301;SDS011;17111;52.130;5.028;2023-12-28T07:29:11;7.88;;;2.40;;
30301;SDS011;17111;52.130;5.028;2023-12-28T07:31:37;6.53;;;1.80;;
30301;SDS011;17111;52.130;5.028;2023-12-28T07:34:04;6.22;;;1.90;;
30301;SDS011;17111;52.130;5.028;2023-12-28T07:36:32;4.43;;;1.55;;
30301;SDS011;17111;52.130;5.028;2023-12-28T07:38:58;6.00;;;2.00;;
30301;SDS011;17111;52.130;5.028;2023-12-28T07:41:25;5.65;;;2.10;;
30301;SDS011;17111;52.130;5.028;2023-12-28T07:43:51;5.18;;;1.95;;
30301;SDS011;17111;52.130;5.028;2023-12-28T07:46:18;5.63;;;1.88;;
30301;SDS011;17111;52.130;5.028;2023-12-28T07:48:45;6.10;;;1.90;;
30301;SDS011;17111;52.130;5.028;2023-12-28T07:51:12;6.88;;;1.83;;
30301;SDS011;17111;52.130;5.028;2023-12-28T07:53:39;5.43;;;1.98;;
30301;SDS011;17111;52.130;5.028;2023-12-28T07:56:06;5.50;;;1.92;;
30301;SDS011;17111;52.130;5.028;2023-12-28T07:58:33;7.90;;;2.13;;
30301;SDS011;17111;52.130;5.028;2023-12-28T08:01:00;6.75;;;2.35;;
30301;SDS011;17111;52.130;5.028;2023-12-28T08:03:27;7.10;;;2.50;;
30301;SDS011;17111;52.130;5.028;2023-12-28T08:05:53;7.47;;;2.05;;
30301;SDS011;17111;52.130;5.028;2023-12-28T08:08:20;7.20;;;2.40;;
30301;SDS011;17111;52.130;5.028;2023-12-28T08:10:47;8.00;;;2.00;;
30301;SDS011;17111;52.130;5.028;2023-12-28T08:13:13;6.85;;;2.25;;
30301;SDS011;17111;52.130;5.028;2023-12-28T08:15:40;6.28;;;2.22;;
30301;SDS011;17111;52.130;5.028;2023-12-28T08:18:06;6.65;;;2.10;;
30301;SDS011;17111;52.130;5.028;2023-12-28T08:20:33;7.43;;;2.17;;
30301;SDS011;17111;52.130;5.028;2023-12-28T08:23:00;8.15;;;2.70;;
30301;SDS011;17111;52.130;5.028;2023-12-28T08:25:42;6.40;;;2.38;;
30301;SDS011;17111;52.130;5.028;2023-12-28T08:28:09;7.78;;;2.60;;
30301;SDS011;17111;52.130;5.028;2023-12-28T08:30:35;10.50;;;2.90;;
30301;SDS011;17111;52.130;5.028;2023-12-28T08:33:02;11.07;;;2.55;;
30301;SDS011;17111;52.130;5.028;2023-12-28T08:35:29;6.53;;;2.50;;
30301;SDS011;17111;52.130;5.028;2023-12-28T08:37:56;8.15;;;2.33;;
30301;SDS011;17111;52.130;5.028;2023-12-28T08:40:23;9.98;;;3.22;;
30301;SDS011;17111;52.130;5.028;2023-12-28T08:42:49;7.38;;;2.80;;
30301;SDS011;17111;52.130;5.028;2023-12-28T08:45:16;11.13;;;2.88;;
30301;SDS011;17111;52.130;5.028;2023-12-28T08:47:42;10.82;;;3.13;;
30301;SDS011;17111;52.130;5.028;2023-12-28T08:50:09;8.00;;;2.72;;
30301;SDS011;17111;52.130;5.028;2023-12-28T08:52:36;9.55;;;2.75;;
30301;SDS011;17111;52.130;5.028;2023-12-28T08:55:04;9.32;;;2.85;;
30301;SDS011;17111;52.130;5.028;2023-12-28T08:57:31;7.95;;;2.67;;
30301;SDS011;17111;52.130;5.028;2023-12-28T09:00:08;10.90;;;2.90;;
30301;SDS011;17111;52.130;5.028;2023-12-28T09:02:36;12.38;;;3.30;;
30301;SDS011;17111;52.130;5.028;2023-12-28T09:05:03;7.53;;;3.03;;
30301;SDS011;17111;52.130;5.028;2023-12-28T09:07:30;12.65;;;3.58;;
30301;SDS011;17111;52.130;5.028;2023-12-28T09:09:57;9.65;;;2.90;;
30301;SDS011;17111;52.130;5.028;2023-12-28T09:12:24;11.20;;;3.15;;
30301;SDS011;17111;52.130;5.028;2023-12-28T09:14:50;10.60;;;3.80;;
30301;SDS011;17111;52.130;5.028;2023-12-28T09:17:21;11.00;;;3.30;;
30301;SDS011;17111;52.130;5.028;2023-12-28T09:19:49;11.40;;;3.58;;
30301;SDS011;17111;52.130;5.028;2023-12-28T09:22:15;12.40;;;3.55;;
30301;SDS011;17111;52.130;5.028;2023-12-28T09:24:42;11.60;;;3.85;;
30301;SDS011;17111;52.130;5.028;2023-12-28T09:27:09;13.13;;;3.88;;
30301;SDS011;17111;52.130;5.028;2023-12-28T09:29:35;10.20;;;4.40;;
30301;SDS011;17111;52.130;5.028;2023-12-28T09:32:02;14.25;;;4.18;;
30301;SDS011;17111;52.130;5.028;2023-12-28T09:34:29;10.23;;;4.10;;
30301;SDS011;17111;52.130;5.028;2023-12-28T09:36:56;12.82;;;3.60;;
30301;SDS011;17111;52.130;5.028;2023-12-28T09:39:22;14.15;;;4.40;;
30301;SDS011;17111;52.130;5.028;2023-12-28T09:41:52;7.43;;;3.17;;
30301;SDS011;17111;52.130;5.028;2023-12-28T09:44:21;14.77;;;4.25;;
30301;SDS011;17111;52.130;5.028;2023-12-28T09:46:50;13.02;;;4.32;;
30301;SDS011;17111;52.130;5.028;2023-12-28T09:49:21;8.70;;;4.10;;
30301;SDS011;17111;52.130;5.028;2023-12-28T09:51:48;8.32;;;3.63;;
30301;SDS011;17111;52.130;5.028;2023-12-28T09:54:15;13.70;;;3.80;;
30301;SDS011;17111;52.130;5.028;2023-12-28T09:56:41;8.95;;;3.53;;
30301;SDS011;17111;52.130;5.028;2023-12-28T09:59:09;10.07;;;4.55;;
30301;SDS011;17111;52.130;5.028;2023-12-28T10:01:36;11.20;;;3.60;;
30301;SDS011;17111;52.130;5.028;2023-12-28T10:04:03;8.60;;;3.60;;
30301;SDS011;17111;52.130;5.028;2023-12-28T10:06:30;8.90;;;3.17;;
30301;SDS011;17111;52.130;5.028;2023-12-28T10:08:57;10.77;;;4.35;;
30301;SDS011;17111;52.130;5.028;2023-12-28T10:11:23;12.45;;;4.07;;
30301;SDS011;17111;52.130;5.028;2023-12-28T10:13:52;12.32;;;4.78;;
30301;SDS011;17111;52.130;5.028;2023-12-28T10:16:19;10.52;;;3.95;;
30301;SDS011;17111;52.130;5.028;2023-12-28T10:18:46;10.60;;;3.95;;
30301;SDS011;17111;52.130;5.028;2023-12-28T10:21:13;10.50;;;4.43;;
30301;SDS011;17111;52.130;5.028;2023-12-28T10:23:40;12.43;;;4.20;;
30301;SDS011;17111;52.130;5.028;2023-12-28T10:26:07;11.68;;;4.40;;
30301;SDS011;17111;52.130;5.028;2023-12-28T10:28:35;11.98;;;4.65;;
30301;SDS011;17111;52.130;5.028;2023-12-28T10:31:05;12.63;;;4.60;;
30301;SDS011;17111;52.130;5.028;2023-12-28T10:33:34;10.32;;;4.53;;
30301;SDS011;17111;52.130;5.028;2023-12-28T10:36:05;8.25;;;4.07;;
30301;SDS011;17111;52.130;5.028;2023-12-28T10:38:34;9.73;;;4.63;;
30301;SDS011;17111;52.130;5.028;2023-12-28T10:41:08;12.20;;;4.70;;
30301;SDS011;17111;52.130;5.028;2023-12-28T10:44:19;11.63;;;4.57;;
30301;SDS011;17111;52.130;5.028;2023-12-28T10:46:36;15.45;;;5.20;;
30301;SDS011;17111;52.130;5.028;2023-12-28T10:49:11;13.55;;;4.97;;
30301;SDS011;17111;52.130;5.028;2023-12-28T10:51:41;12.80;;;5.60;;
30301;SDS011;17111;52.130;5.028;2023-12-28T10:54:20;12.77;;;4.78;;
30301;SDS011;17111;52.130;5.028;2023-12-28T10:57:17;11.88;;;4.65;;
30301;SDS011;17111;52.130;5.028;2023-12-28T11:02:51;12.30;;;4.90;;
30301;SDS011;17111;52.130;5.028;2023-12-28T11:05:20;10.60;;;4.40;;
30301;SDS011;17111;52.130;5.028;2023-12-28T11:07:47;14.50;;;5.75;;
30301;SDS011;17111;52.130;5.028;2023-12-28T11:10:20;13.88;;;4.50;;
30301;SDS011;17111;52.130;5.028;2023-12-28T11:12:53;17.48;;;5.45;;
30301;SDS011;17111;52.130;5.028;2023-12-28T11:15:20;12.85;;;4.50;;
30301;SDS011;17111;52.130;5.028;2023-12-28T11:17:48;14.68;;;4.93;;
30301;SDS011;17111;52.130;5.028;2023-12-28T11:20:15;9.93;;;4.20;;
30301;SDS011;17111;52.130;5.028;2023-12-28T11:22:42;19.48;;;5.63;;
30301;SDS011;17111;52.130;5.028;2023-12-28T11:25:17;10.63;;;4.13;;
30301;SDS011;17111;52.130;5.028;2023-12-28T11:27:45;13.82;;;4.45;;
30301;SDS011;17111;52.130;5.028;2023-12-28T11:30:13;13.75;;;4.75;;
30301;SDS011;17111;52.130;5.028;2023-12-28T11:32:40;11.52;;;4.60;;
30301;SDS011;17111;52.130;5.028;2023-12-28T11:35:11;15.88;;;4.88;;
30301;SDS011;17111;52.130;5.028;2023-12-28T11:37:46;11.88;;;4.75;;
30301;SDS011;17111;52.130;5.028;2023-12-28T11:40:17;13.60;;;4.35;;
30301;SDS011;17111;52.130;5.028;2023-12-28T11:42:51;13.95;;;4.82;;
30301;SDS011;17111;52.130;5.028;2023-12-28T11:45:19;12.63;;;4.18;;
30301;SDS011;17111;52.130;5.028;2023-12-28T11:47:47;11.93;;;4.75;;
30301;SDS011;17111;52.130;5.028;2023-12-28T11:50:24;10.00;;;3.75;;
30301;SDS011;17111;52.130;5.028;2023-12-28T11:52:51;16.02;;;3.75;;
30301;SDS011;17111;52.130;5.028;2023-12-28T11:55:21;15.55;;;4.20;;
30301;SDS011;17111;52.130;5.028;2023-12-28T11:57:49;9.90;;;4.38;;
30301;SDS011;17111;52.130;5.028;2023-12-28T12:00:16;14.57;;;4.03;;
30301;SDS011;17111;52.130;5.028;2023-12-28T12:02:43;13.23;;;4.63;;
30301;SDS011;17111;52.130;5.028;2023-12-28T12:05:14;11.90;;;4.13;;
30301;SDS011;17111;52.130;5.028;2023-12-28T12:07:41;10.10;;;3.90;;
30301;SDS011;17111;52.130;5.028;2023-12-28T12:10:07;12.60;;;3.80;;
30301;SDS011;17111;52.130;5.028;2023-12-28T12:12:34;15.73;;;4.25;;
30301;SDS011;17111;52.130;5.028;2023-12-28T12:15:01;12.25;;;4.05;;
30301;SDS011;17111;52.130;5.028;2023-12-28T12:17:28;13.38;;;4.38;;
30301;SDS011;17111;52.130;5.028;2023-12-28T12:19:55;11.32;;;4.10;;
30301;SDS011;17111;52.130;5.028;2023-12-28T12:22:24;11.35;;;3.97;;
30301;SDS011;17111;52.130;5.028;2023-12-28T12:24:55;14.63;;;3.63;;
30301;SDS011;17111;52.130;5.028;2023-12-28T12:27:24;12.43;;;3.53;;
30301;SDS011;17111;52.130;5.028;2023-12-28T12:29:51;11.25;;;3.40;;
30301;SDS011;17111;52.130;5.028;2023-12-28T12:32:17;13.35;;;3.85;;
30301;SDS011;17111;52.130;5.028;2023-12-28T12:34:44;13.48;;;4.28;;
30301;SDS011;17111;52.130;5.028;2023-12-28T12:37:11;11.95;;;3.72;;
30301;SDS011;17111;52.130;5.028;2023-12-28T12:39:37;14.00;;;4.13;;
30301;SDS011;17111;52.130;5.028;2023-12-28T12:42:04;9.48;;;3.75;;
30301;SDS011;17111;52.130;5.028;2023-12-28T12:44:31;13.02;;;3.97;;
30301;SDS011;17111;52.130;5.028;2023-12-28T12:46:58;10.88;;;3.55;;
30301;SDS011;17111;52.130;5.028;2023-12-28T12:49:25;11.50;;;3.72;;
30301;SDS011;17111;52.130;5.028;2023-12-28T12:51:52;14.18;;;3.67;;
30301;SDS011;17111;52.130;5.028;2023-12-28T12:54:19;14.20;;;4.20;;
30301;SDS011;17111;52.130;5.028;2023-12-28T12:56:46;10.70;;;3.45;;
30301;SDS011;17111;52.130;5.028;2023-12-28T12:59:13;13.77;;;3.67;;
30301;SDS011;17111;52.130;5.028;2023-12-28T13:01:46;13.45;;;3.75;;
30301;SDS011;17111;52.130;5.028;2023-12-28T13:04:18;18.27;;;3.93;;
30301;SDS011;17111;52.130;5.028;2023-12-28T13:06:45;11.77;;;3.80;;
30301;SDS011;17111;52.130;5.028;2023-12-28T13:09:12;11.20;;;3.22;;
30301;SDS011;17111;52.130;5.028;2023-12-28T13:11:39;13.75;;;3.63;;
30301;SDS011;17111;52.130;5.028;2023-12-28T13:14:05;17.00;;;3.60;;
30301;SDS011;17111;52.130;5.028;2023-12-28T13:16:32;14.88;;;3.80;;
30301;SDS011;17111;52.130;5.028;2023-12-28T13:18:59;14.88;;;4.55;;
30301;SDS011;17111;52.130;5.028;2023-12-28T13:21:25;13.55;;;3.53;;
30301;SDS011;17111;52.130;5.028;2023-12-28T13:23:52;16.15;;;3.92;;
30301;SDS011;17111;52.130;5.028;2023-12-28T13:26:19;11.23;;;3.30;;
30301;SDS011;17111;52.130;5.028;2023-12-28T13:28:45;15.30;;;4.07;;
30301;SDS011;17111;52.130;5.028;2023-12-28T13:31:12;10.13;;;3.58;;
30301;SDS011;17111;52.130;5.028;2023-12-28T13:33:39;13.55;;;3.60;;
30301;SDS011;17111;52.130;5.028;2023-12-28T13:36:05;15.00;;;3.95;;
30301;SDS011;17111;52.130;5.028;2023-12-28T13:38:32;14.65;;;3.70;;
30301;SDS011;17111;52.130;5.028;2023-12-28T13:40:59;12.98;;;3.58;;
30301;SDS011;17111;52.130;5.028;2023-12-28T13:43:25;12.80;;;3.42;;
30301;SDS011;17111;52.130;5.028;2023-12-28T13:45:52;11.93;;;3.63;;
30301;SDS011;17111;52.130;5.028;2023-12-28T13:48:18;12.88;;;3.63;;
30301;SDS011;17111;52.130;5.028;2023-12-28T13:50:46;13.82;;;3.70;;
30301;SDS011;17111;52.130;5.028;2023-12-28T13:53:12;11.35;;;3.55;;
30301;SDS011;17111;52.130;5.028;2023-12-28T13:55:40;13.05;;;3.67;;
30301;SDS011;17111;52.130;5.028;2023-12-28T13:58:06;12.48;;;2.95;;
30301;SDS011;17111;52.130;5.028;2023-12-28T14:00:34;12.10;;;3.95;;
30301;SDS011;17111;52.130;5.028;2023-12-28T14:03:01;11.85;;;3.35;;
30301;SDS011;17111;52.130;5.028;2023-12-28T14:05:29;11.88;;;3.55;;
30301;SDS011;17111;52.130;5.028;2023-12-28T14:08:01;11.82;;;3.67;;
30301;SDS011;17111;52.130;5.028;2023-12-28T14:10:29;9.82;;;3.25;;
30301;SDS011;17111;52.130;5.028;2023-12-28T14:12:56;9.95;;;2.92;;
30301;SDS011;17111;52.130;5.028;2023-12-28T14:15:23;10.88;;;3.17;;
30301;SDS011;17111;52.130;5.028;2023-12-28T14:17:49;11.27;;;3.70;;
30301;SDS011;17111;52.130;5.028;2023-12-28T14:20:16;12.98;;;3.33;;
30301;SDS011;17111;52.130;5.028;2023-12-28T14:22:43;10.10;;;3.08;;
30301;SDS011;17111;52.130;5.028;2023-12-28T14:25:10;9.82;;;3.30;;
30301;SDS011;17111;52.130;5.028;2023-12-28T14:27:38;8.73;;;3.20;;
30301;SDS011;17111;52.130;5.028;2023-12-28T14:30:05;8.77;;;2.70;;
30301;SDS011;17111;52.130;5.028;2023-12-28T14:32:35;11.50;;;3.40;;
30301;SDS011;17111;52.130;5.028;2023-12-28T14:35:03;13.63;;;3.30;;
30301;SDS011;17111;52.130;5.028;2023-12-28T14:37:30;16.17;;;3.72;;
30301;SDS011;17111;52.130;5.028;2023-12-28T14:39:57;10.02;;;3.00;;
30301;SDS011;17111;52.130;5.028;2023-12-28T14:42:24;10.88;;;3.25;;
30301;SDS011;17111;52.130;5.028;2023-12-28T14:44:50;12.63;;;4.05;;
30301;SDS011;17111;52.130;5.028;2023-12-28T14:47:17;8.35;;;3.08;;
30301;SDS011;17111;52.130;5.028;2023-12-28T14:49:44;9.20;;;2.75;;
30301;SDS011;17111;52.130;5.028;2023-12-28T14:52:11;9.00;;;3.00;;